San Diego, California
Current Conditions -  °F | °C
As of 3:51 PM on Friday 28 Nov 2014 (Local Time) from KSAN Reporting Station
Few Clouds Few Clouds  
Wind Chill: 22°   Ceiling: Unl
Heat Index: 22°   Visibility: 10mi
Dew Point: 13°   Wind: 5mph
Humidity: 57%   Direction: 190°S
Pressure: 29.91"   Gusts: NA
Location:  32.72°N, 117.16°W
Report Text: KSAN 282351Z 19004KT 10SM FEW010 22/13 A2991 RMK AO2 SLP126 T02170128 10244 20217 56011
Loading
Personal Weather Stations






























Interactive Weather Map New forecast layout! Learn more

10-Day Weather Forecast

Advertisements
Track Severe Weather on mobile